createdAt,value
2019-06-08T00:02:08.335Z,100761.16
2019-06-08T00:04:37.414Z,100779.22
2019-06-08T00:07:06.506Z,100786.45
2019-06-08T00:09:35.575Z,100791.92
2019-06-08T00:12:04.679Z,100777.71
2019-06-08T00:14:33.741Z,100772.16
2019-06-08T00:17:02.866Z,100774.11
2019-06-08T00:19:31.970Z,100783.86
2019-06-08T00:22:01.043Z,100786.55
2019-06-08T00:24:30.111Z,100807.98
2019-06-08T00:26:59.216Z,100827.20
2019-06-08T00:29:28.294Z,100851.93
2019-06-08T00:31:57.386Z,100857.86
2019-06-08T00:34:26.457Z,100869.23
2019-06-08T00:36:55.570Z,100862.56
2019-06-08T00:39:25.152Z,100840.70
2019-06-08T00:41:54.315Z,100839.36
2019-06-08T00:44:23.417Z,100838.48
2019-06-08T00:46:52.485Z,100836.23
2019-06-08T00:49:22.623Z,100853.61
2019-06-08T00:51:51.868Z,100846.41
2019-06-08T00:54:21.561Z,100842.83
2019-06-08T00:56:50.769Z,100850.87
2019-06-08T00:59:19.989Z,100859.88
2019-06-08T01:01:49.054Z,100854.51
2019-06-08T01:04:18.606Z,100862.60
2019-06-08T01:06:47.804Z,100845.23
2019-06-08T01:09:18.050Z,100820.61
2019-06-08T01:11:47.261Z,100829.52
2019-06-08T01:14:16.350Z,100850.09
2019-06-08T01:16:45.426Z,100872.39
2019-06-08T01:19:14.897Z,100886.80
2019-06-08T01:21:44.005Z,100888.22
2019-06-08T01:24:13.729Z,100869.91
2019-06-08T01:26:42.824Z,100873.89
2019-06-08T01:29:11.891Z,100872.95
2019-06-08T01:31:40.994Z,100887.31
2019-06-08T01:34:10.082Z,100912.10
2019-06-08T01:36:39.186Z,100915.84
2019-06-08T01:39:08.299Z,100913.67
2019-06-08T01:41:37.377Z,100901.27
2019-06-08T01:44:06.537Z,100904.47
2019-06-08T01:46:35.615Z,100908.53
2019-06-08T01:49:04.719Z,100925.94
2019-06-08T01:51:33.792Z,100916.55
2019-06-08T01:54:02.918Z,100912.56
2019-06-08T01:56:33.313Z,100909.55
2019-06-08T01:59:02.474Z,100913.14
2019-06-08T02:01:31.962Z,100911.80
2019-06-08T02:04:01.148Z,100919.41
2019-06-08T02:06:30.462Z,100931.09
2019-06-08T02:08:59.545Z,100952.70
2019-06-08T02:11:28.885Z,100927.09
2019-06-08T02:13:58.005Z,100935.36
2019-06-08T02:16:27.383Z,100912.30
2019-06-08T02:18:56.552Z,100897.55
2019-06-08T02:21:26.729Z,100913.14
2019-06-08T02:23:55.895Z,100903.82
2019-06-08T02:26:27.047Z,100908.95
2019-06-08T02:28:55.790Z,100893.55
2019-06-08T02:31:24.878Z,100890.30
2019-06-08T02:33:53.982Z,100883.80
2019-06-08T02:36:23.061Z,100883.56
2019-06-08T02:38:52.155Z,100867.65
2019-06-08T02:41:21.229Z,100854.75
2019-06-08T02:43:50.392Z,100834.63
2019-06-08T02:46:19.466Z,100806.43
2019-06-08T02:49:03.133Z,100842.56
2019-06-08T02:51:20.593Z,100857.56
2019-06-08T02:53:50.797Z,100870.37
2019-06-08T02:56:21.537Z,100876.00
2019-06-08T02:58:52.367Z,100878.94
2019-06-08T03:01:23.139Z,100889.39
2019-06-08T03:03:54.106Z,100889.94
2019-06-08T03:06:23.177Z,100881.64
2019-06-08T03:08:54.223Z,100886.18
2019-06-08T03:11:24.193Z,100890.28
2019-06-08T03:13:56.443Z,100897.53
2019-06-08T03:16:25.539Z,100905.34
2019-06-08T03:18:54.650Z,100904.56
2019-06-08T03:21:23.763Z,100904.61
2019-06-08T03:23:52.856Z,100903.39
2019-06-08T03:26:21.929Z,100902.58
2019-06-08T03:28:51.044Z,100905.28
2019-06-08T03:31:20.132Z,100914.40
2019-06-08T03:33:55.162Z,100920.30
2019-06-08T03:36:19.961Z,100913.73
2019-06-08T03:38:49.050Z,100923.16
2019-06-08T03:41:18.040Z,100926.24
2019-06-08T03:43:47.142Z,100934.70
2019-06-08T03:46:16.237Z,100933.71
2019-06-08T03:48:46.513Z,100929.66
2019-06-08T03:51:15.673Z,100940.35
2019-06-08T03:53:47.183Z,100941.73
2019-06-08T03:56:15.580Z,100948.39
2019-06-08T03:58:45.977Z,100954.50
2019-06-08T04:01:15.492Z,100954.00
2019-06-08T04:03:46.250Z,100953.92
2019-06-08T04:06:15.556Z,100947.66
2019-06-08T04:08:46.802Z,100958.79
2019-06-08T04:11:15.444Z,100964.55
2019-06-08T04:13:46.508Z,100975.70
2019-06-08T04:16:15.347Z,100986.83
2019-06-08T04:18:46.626Z,100991.27
2019-06-08T04:21:15.254Z,100997.93
2019-06-08T04:23:45.387Z,100999.70
2019-06-08T04:26:15.153Z,101003.77
2019-06-08T04:28:44.767Z,100998.92
2019-06-08T04:31:14.507Z,101016.79
2019-06-08T04:33:44.251Z,101023.95
2019-06-08T04:36:13.567Z,101020.05
2019-06-08T04:38:43.327Z,101031.19
2019-06-08T04:41:12.529Z,101034.77
2019-06-08T04:43:42.861Z,101031.69
2019-06-08T04:46:12.545Z,101028.05
2019-06-08T04:48:43.098Z,101012.84
2019-06-08T04:51:12.448Z,101016.83
2019-06-08T04:53:43.251Z,101005.63
2019-06-08T04:56:12.371Z,101005.59
2019-06-08T04:58:43.527Z,101006.08
2019-06-08T05:01:12.291Z,101011.00
2019-06-08T05:03:43.273Z,101010.14
2019-06-08T05:06:12.210Z,101017.75
2019-06-08T05:08:41.295Z,101021.28
2019-06-08T05:11:11.762Z,101006.52
2019-06-08T05:13:41.182Z,101016.69
2019-06-08T05:16:10.352Z,101016.65
2019-06-08T05:18:39.435Z,101021.06
2019-06-08T05:21:08.518Z,101017.44
2019-06-08T05:23:37.614Z,101009.90
2019-06-08T05:26:06.727Z,101015.72
2019-06-08T05:28:35.802Z,101027.30
2019-06-08T05:31:04.898Z,101030.85
2019-06-08T05:33:33.986Z,101017.95
2019-06-08T05:36:03.102Z,101022.32
2019-06-08T05:38:32.337Z,101017.39
2019-06-08T05:41:01.439Z,101026.30
2019-06-08T05:43:30.452Z,101044.12
2019-06-08T05:45:59.559Z,101036.88
2019-06-08T05:48:28.634Z,101038.62
2019-06-08T05:51:03.905Z,101027.92
2019-06-08T05:53:28.532Z,101049.79
2019-06-08T05:55:57.557Z,101062.76
2019-06-08T05:58:26.627Z,101057.01
2019-06-08T06:00:55.779Z,101059.23
2019-06-08T06:03:24.817Z,101038.83
2019-06-08T06:05:53.920Z,101030.45
2019-06-08T06:08:23.007Z,101035.38
2019-06-08T06:10:52.326Z,101033.64
2019-06-08T06:13:21.484Z,101028.31
2019-06-08T06:15:51.735Z,101035.05
2019-06-08T06:18:20.964Z,101056.48
2019-06-08T06:20:51.358Z,101085.93
2019-06-08T06:23:20.633Z,101108.70
2019-06-08T06:25:49.738Z,101086.03
2019-06-08T06:28:18.825Z,101070.00
2019-06-08T06:30:48.418Z,101078.91
2019-06-08T06:33:18.947Z,101070.92
2019-06-08T06:35:48.069Z,101071.35
2019-06-08T06:38:17.246Z,101084.27
2019-06-08T06:40:46.477Z,101112.33
2019-06-08T06:43:15.566Z,101110.58
2019-06-08T06:45:45.984Z,101103.89
2019-06-08T06:48:15.150Z,101119.87
2019-06-08T06:50:44.387Z,101134.52
2019-06-08T06:53:13.475Z,101137.17
2019-06-08T06:55:42.855Z,101133.15
2019-06-08T06:58:11.945Z,101123.34
2019-06-08T07:00:41.036Z,101110.81
2019-06-08T07:03:10.143Z,101110.88
2019-06-08T07:05:42.239Z,101124.23
2019-06-08T07:08:11.335Z,101146.02
2019-06-08T07:10:40.419Z,101183.89
2019-06-08T07:13:10.699Z,101178.45
2019-06-08T07:15:41.682Z,101159.70
2019-06-08T07:18:10.652Z,101129.40
2019-06-08T07:20:39.737Z,101140.92
2019-06-08T07:23:08.836Z,101149.35
2019-06-08T07:25:37.943Z,101145.27
2019-06-08T07:28:07.041Z,101154.64
2019-06-08T07:30:36.130Z,101181.80
2019-06-08T07:33:05.262Z,101193.77
2019-06-08T07:35:34.513Z,101179.50
2019-06-08T07:38:03.624Z,101167.86
2019-06-08T07:40:32.604Z,101162.89
2019-06-08T07:43:01.706Z,101183.79
2019-06-08T07:45:30.681Z,101185.09
2019-06-08T07:48:00.577Z,101184.55
2019-06-08T07:50:29.852Z,101180.36
2019-06-08T07:52:58.984Z,101201.22
2019-06-08T07:55:28.057Z,101210.02
2019-06-08T07:57:57.164Z,101201.00
2019-06-08T08:00:26.241Z,101184.37
2019-06-08T08:02:56.261Z,101175.28
2019-06-08T08:05:25.411Z,101196.17
2019-06-08T08:07:54.841Z,101211.20
2019-06-08T08:10:23.894Z,101207.05
2019-06-08T08:12:53.008Z,101201.11
2019-06-08T08:15:22.144Z,101204.59
2019-06-08T08:17:53.464Z,101207.16
2019-06-08T08:20:22.192Z,101205.59
2019-06-08T08:22:55.809Z,101208.95
2019-06-08T08:25:22.139Z,101208.78
2019-06-08T08:27:51.965Z,101213.02
2019-06-08T08:30:21.810Z,101215.16
2019-06-08T08:32:52.661Z,101204.42
2019-06-08T08:35:21.714Z,101201.19
2019-06-08T08:37:55.505Z,101224.48
2019-06-08T08:40:21.597Z,101221.80
2019-06-08T08:42:52.261Z,101219.47
2019-06-08T08:45:21.490Z,101217.75
2019-06-08T08:47:51.154Z,101239.53
2019-06-08T08:50:21.358Z,101242.56
2019-06-08T08:52:51.285Z,101237.64
2019-06-08T08:55:21.397Z,101229.81
2019-06-08T08:57:50.710Z,101236.47
2019-06-08T09:00:21.233Z,101253.33
2019-06-08T09:03:10.894Z,101250.08
2019-06-08T09:05:21.191Z,101257.17
2019-06-08T09:07:52.054Z,101260.20
2019-06-08T09:10:21.111Z,101262.29
2019-06-08T09:12:52.136Z,101263.48
2019-06-08T09:15:22.231Z,101257.01
2019-06-08T09:17:52.326Z,101260.41
2019-06-08T09:20:22.053Z,101268.30
2019-06-08T09:22:58.852Z,101259.17
2019-06-08T09:25:21.958Z,101279.62
2019-06-08T09:27:51.879Z,101267.03
2019-06-08T09:30:21.917Z,101265.22
2019-06-08T09:32:52.260Z,101278.14
2019-06-08T09:35:21.608Z,101279.83
2019-06-08T09:37:53.215Z,101268.94
2019-06-08T09:40:21.697Z,101263.97
2019-06-08T09:42:53.684Z,101253.45
2019-06-08T09:45:21.713Z,101259.11
2019-06-08T09:47:50.806Z,101262.67
2019-06-08T09:50:20.115Z,101267.53
2019-06-08T09:52:49.196Z,101278.52
2019-06-08T09:55:18.418Z,101269.25
2019-06-08T09:57:48.535Z,101273.23
2019-06-08T10:00:21.481Z,101266.62
2019-06-08T10:02:48.606Z,101261.33
2019-06-08T10:05:18.538Z,101268.45
2019-06-08T10:07:48.718Z,101267.50
2019-06-08T10:10:18.299Z,101291.13
2019-06-08T10:12:48.393Z,101275.48
2019-06-08T10:15:18.151Z,101279.92
2019-06-08T10:17:47.736Z,101276.22
2019-06-08T10:20:18.394Z,101290.47
2019-06-08T10:22:48.267Z,101288.45
2019-06-08T10:25:18.659Z,101291.05
2019-06-08T10:27:47.737Z,101287.45
2019-06-08T10:30:18.364Z,101289.57
2019-06-08T10:32:48.003Z,101292.42
2019-06-08T10:35:20.970Z,101290.12
2019-06-08T10:37:51.243Z,101311.41
2019-06-08T10:40:20.934Z,101311.39
2019-06-08T10:42:50.030Z,101309.84
2019-06-08T10:45:19.244Z,101310.66
2019-06-08T10:47:48.365Z,101308.31
2019-06-08T10:50:19.140Z,101309.48
2019-06-08T10:52:48.504Z,101313.80
2019-06-08T10:58:49.535Z,101314.09
2019-06-08T11:01:15.110Z,101312.73
2019-06-08T11:03:44.290Z,101311.17
2019-06-08T11:06:13.729Z,101297.20
2019-06-08T11:08:42.954Z,101308.59
2019-06-08T11:11:12.137Z,101315.94
2019-06-08T11:13:41.221Z,101302.63
2019-06-08T11:16:13.526Z,101313.01
2019-06-08T11:18:41.097Z,101321.00
2019-06-08T11:21:12.681Z,101313.47
2019-06-08T11:23:41.634Z,101322.09
2019-06-08T11:26:19.112Z,101326.19
2019-06-08T11:28:41.662Z,101335.73
2019-06-08T11:31:15.715Z,101327.56
2019-06-08T11:33:41.573Z,101320.36
2019-06-08T11:36:14.221Z,101328.19
2019-06-08T11:38:41.494Z,101324.55
2019-06-08T11:41:13.464Z,101330.95
2019-06-08T11:43:41.467Z,101318.17
2019-06-08T11:46:10.718Z,101334.59
2019-06-08T11:48:41.534Z,101334.73
2019-06-08T11:51:13.010Z,101328.77
2019-06-08T11:53:41.462Z,101337.82
2019-06-08T11:56:13.116Z,101334.23
2019-06-08T11:58:42.695Z,101337.64
2019-06-08T12:01:14.708Z,101340.57
2019-06-08T12:03:42.647Z,101323.35
2019-06-08T12:06:14.123Z,101337.98
2019-06-08T12:08:42.537Z,101332.88
2019-06-08T12:11:17.186Z,101344.33
2019-06-08T12:13:42.439Z,101343.03
2019-06-08T12:16:15.879Z,101351.69
2019-06-08T12:18:42.371Z,101351.34
2019-06-08T12:21:13.026Z,101346.00
2019-06-08T12:23:42.285Z,101344.16
2019-06-08T12:26:12.267Z,101359.61
2019-06-08T12:28:41.437Z,101350.69
2019-06-08T12:31:16.810Z,101353.59
2019-06-08T12:33:41.340Z,101362.47
2019-06-08T12:36:13.567Z,101354.20
2019-06-08T12:38:41.356Z,101357.05
2019-06-08T12:41:12.286Z,101356.48
2019-06-08T12:43:41.299Z,101364.53
2019-06-08T12:46:12.582Z,101373.34
2019-06-08T12:48:41.357Z,101365.80
2019-06-08T12:51:12.082Z,101369.94
2019-06-08T12:53:41.267Z,101380.47
2019-06-08T12:56:11.780Z,101382.16
2019-06-08T12:58:41.185Z,101376.76
2019-06-08T13:01:11.038Z,101381.80
2019-06-08T13:03:40.583Z,101374.25
2019-06-08T13:06:28.784Z,101385.78
2019-06-08T13:08:57.931Z,101379.92
2019-06-08T13:11:28.323Z,101375.25
2019-06-08T13:13:57.469Z,101375.27
2019-06-08T13:16:28.408Z,101385.87
2019-06-08T13:18:58.744Z,101393.64
2019-06-08T13:21:34.498Z,101388.42
2019-06-08T13:23:58.682Z,101376.94
2019-06-08T13:26:30.926Z,101386.06
2019-06-08T13:29:00.568Z,101396.81
2019-06-08T13:31:29.398Z,101401.83
2019-06-08T13:33:58.728Z,101401.55
2019-06-08T13:36:29.690Z,101404.81
2019-06-08T13:38:58.687Z,101407.84
2019-06-08T13:41:29.894Z,101409.16
2019-06-08T13:44:01.924Z,101405.20
2019-06-08T13:46:31.001Z,101413.64
2019-06-08T13:49:00.090Z,101411.34
2019-06-08T13:51:29.493Z,101411.91
2019-06-08T13:53:58.611Z,101415.78
2019-06-08T13:56:28.423Z,101420.04
2019-06-08T13:58:57.750Z,101415.00
2019-06-08T14:01:30.456Z,101427.90
2019-06-08T14:03:58.291Z,101426.09
2019-06-08T14:06:28.415Z,101431.41
2019-06-08T14:08:58.211Z,101432.28
2019-06-08T14:11:28.085Z,101426.33
2019-06-08T14:14:00.825Z,101429.21
2019-06-08T14:16:29.682Z,101429.56
2019-06-08T14:18:58.995Z,101429.47
2019-06-08T14:21:37.415Z,101436.66
2019-06-08T14:23:58.909Z,101455.66
2019-06-08T14:26:27.995Z,101448.80
2019-06-08T14:29:00.720Z,101447.37
2019-06-08T14:31:31.568Z,101433.21
2019-06-08T14:33:58.728Z,101442.05
2019-06-08T14:36:29.088Z,101436.69
2019-06-08T14:39:02.248Z,101429.31
2019-06-08T14:41:31.533Z,101441.73
2019-06-08T14:44:00.189Z,101438.21
2019-06-08T14:46:30.390Z,101442.39
2019-06-08T14:48:59.652Z,101451.11
2019-06-08T14:51:48.010Z,101437.55
2019-06-08T14:54:20.839Z,101445.16
2019-06-08T14:56:48.533Z,101439.45
2019-06-08T14:59:18.798Z,101441.56
2019-06-08T15:01:49.132Z,101451.30
2019-06-08T15:04:19.319Z,101449.88
2019-06-08T15:06:49.164Z,101445.64
2019-06-08T15:09:19.382Z,101456.52
2019-06-08T15:11:48.579Z,101444.31
2019-06-08T15:14:17.670Z,101434.89
2019-06-08T15:16:49.180Z,101436.59
2019-06-08T15:19:18.397Z,101435.52
2019-06-08T15:21:48.433Z,101439.03
2019-06-08T15:24:18.573Z,101435.83
2019-06-08T15:26:48.774Z,101442.71
2019-06-08T15:29:18.042Z,101439.44
2019-06-08T15:31:48.213Z,101437.97
2019-06-08T15:34:18.001Z,101444.20
2019-06-08T15:36:47.583Z,101444.13
2019-06-08T15:39:17.923Z,101444.24
2019-06-08T15:41:48.822Z,101447.65
2019-06-08T15:44:21.263Z,101448.52
2019-06-08T15:46:48.822Z,101452.27
2019-06-08T15:49:18.620Z,101447.44
2019-06-08T15:51:48.172Z,101454.00
2019-06-08T15:54:17.346Z,101443.31
2019-06-08T15:56:51.339Z,101450.52
2019-06-08T15:59:17.351Z,101449.36
2019-06-08T16:01:46.466Z,101455.14
2019-06-08T16:04:15.541Z,101446.28
2019-06-08T16:06:44.673Z,101444.09
2019-06-08T16:09:13.735Z,101449.50
2019-06-08T16:11:42.829Z,101452.58
2019-06-08T16:14:11.901Z,101458.41
2019-06-08T16:16:41.004Z,101451.94
2019-06-08T16:19:10.090Z,101448.22
2019-06-08T16:21:39.191Z,101448.86
2019-06-08T16:24:08.347Z,101453.87
2019-06-08T16:26:52.218Z,101447.92
2019-06-08T16:29:08.246Z,101453.83
2019-06-08T16:31:37.329Z,101443.02
2019-06-08T16:34:06.392Z,101453.01
2019-06-08T16:36:35.644Z,101450.35
2019-06-08T16:39:06.103Z,101451.70
2019-06-08T16:41:36.130Z,101450.88
2019-06-08T16:44:07.131Z,101445.00
2019-06-08T16:46:36.551Z,101448.23
2019-06-08T16:49:05.779Z,101454.60
2019-06-08T16:51:35.779Z,101455.40
2019-06-08T16:54:05.017Z,101465.02
2019-06-08T16:56:34.249Z,101464.85
2019-06-08T16:59:03.256Z,101462.49
2019-06-08T17:01:32.915Z,101473.02
2019-06-08T17:04:03.006Z,101474.13
2019-06-08T17:06:33.203Z,101475.53
2019-06-08T17:09:02.644Z,101471.23
2019-06-08T17:11:31.870Z,101473.94
2019-06-08T17:14:00.907Z,101482.91
2019-06-08T17:16:30.098Z,101479.92
2019-06-08T17:18:59.152Z,101480.55
2019-06-08T17:21:28.270Z,101481.31
2019-06-08T17:23:57.336Z,101473.45
2019-06-08T17:26:26.434Z,101482.56
2019-06-08T17:28:55.508Z,101479.17
2019-06-08T17:31:24.723Z,101483.84
2019-06-08T17:33:53.791Z,101478.19
2019-06-08T17:36:22.922Z,101482.05
2019-06-08T17:38:51.997Z,101479.91
2019-06-08T17:41:21.103Z,101480.53
2019-06-08T17:43:50.180Z,101476.66
2019-06-08T17:46:19.284Z,101486.67
2019-06-08T17:48:48.345Z,101481.09
2019-06-08T17:51:17.450Z,101479.36
2019-06-08T17:53:46.509Z,101481.41
2019-06-08T17:56:15.579Z,101481.14
2019-06-08T17:58:44.728Z,101488.48
2019-06-08T18:01:13.824Z,101488.58
2019-06-08T18:03:44.597Z,101490.95
2019-06-08T18:06:13.901Z,101495.08
2019-06-08T18:08:44.014Z,101494.25
2019-06-08T18:11:13.711Z,101496.67
2019-06-08T18:13:44.100Z,101494.10
2019-06-08T18:16:13.685Z,101496.52
2019-06-08T18:18:44.299Z,101498.04
2019-06-08T18:21:13.552Z,101500.48
2019-06-08T18:23:44.148Z,101492.92
2019-06-08T18:26:13.363Z,101499.78
2019-06-08T18:28:44.104Z,101499.42
2019-06-08T18:31:13.246Z,101497.75
2019-06-08T18:33:45.000Z,101502.30
2019-06-08T18:36:13.129Z,101502.34
2019-06-08T18:38:43.217Z,101498.93
2019-06-08T18:41:13.011Z,101502.20
2019-06-08T18:43:42.970Z,101508.50
2019-06-08T18:46:12.906Z,101510.36
2019-06-08T18:48:44.800Z,101514.00
2019-06-08T18:51:17.356Z,101513.12
2019-06-08T18:54:06.000Z,101514.11
2019-06-08T18:56:18.271Z,101521.75
2019-06-08T18:58:52.876Z,101520.52
2019-06-08T19:01:22.053Z,101525.50
2019-06-08T19:03:52.267Z,101521.13
2019-06-08T19:06:20.685Z,101525.75
2019-06-08T19:08:51.013Z,101530.77
2019-06-08T19:11:20.053Z,101541.23
2019-06-08T19:13:49.470Z,101537.84
2019-06-08T19:16:18.551Z,101545.64
2019-06-08T19:18:52.141Z,101549.78
2019-06-08T19:21:18.357Z,101551.26
2019-06-08T19:23:49.218Z,101546.45
2019-06-08T19:26:18.243Z,101554.55
2019-06-08T19:28:52.529Z,101556.46
2019-06-08T19:31:18.056Z,101552.08
2019-06-08T19:33:51.409Z,101559.88
2019-06-08T19:36:18.115Z,101565.81
2019-06-08T19:38:52.565Z,101561.89
2019-06-08T19:41:17.923Z,101571.93
2019-06-08T19:43:49.499Z,101578.27
2019-06-08T19:46:18.197Z,101570.36
2019-06-08T19:48:53.204Z,101571.31
2019-06-08T19:51:18.152Z,101573.21
2019-06-08T19:53:52.291Z,101577.30
2019-06-08T19:56:21.193Z,101580.98
2019-06-08T19:58:59.087Z,101586.91
2019-06-08T20:01:19.673Z,101584.77
2019-06-08T20:03:49.087Z,101591.54
2019-06-08T20:06:20.235Z,101600.98
2019-06-08T20:08:51.405Z,101598.46
2019-06-08T20:11:19.798Z,101598.12
2019-06-08T20:13:50.413Z,101601.41
2019-06-08T20:16:19.830Z,101599.69
2019-06-08T20:18:51.239Z,101602.91
2019-06-08T20:21:19.942Z,101609.27
2019-06-08T20:23:50.794Z,101617.37
2019-06-08T20:26:19.766Z,101615.69
2019-06-08T20:28:51.298Z,101619.90
2019-06-08T20:31:19.665Z,101625.36
2019-06-08T20:33:50.712Z,101622.73
2019-06-08T20:36:19.482Z,101618.78
2019-06-08T20:38:49.044Z,101618.87
2019-06-08T20:41:18.400Z,101620.73
2019-06-08T20:43:50.308Z,101619.52
2019-06-08T20:46:20.389Z,101627.69
2019-06-08T20:48:50.460Z,101626.39
2019-06-08T20:51:19.852Z,101630.52
2019-06-08T20:53:50.857Z,101635.02
2019-06-08T20:56:19.720Z,101632.36
2019-06-08T20:58:50.979Z,101633.33
2019-06-08T21:01:19.625Z,101638.77
2019-06-08T21:03:50.950Z,101642.38
2019-06-08T21:06:19.532Z,101643.34
2019-06-08T21:08:49.868Z,101645.20
2019-06-08T21:11:19.412Z,101644.91
2019-06-08T21:13:52.014Z,101647.22
2019-06-08T21:16:19.298Z,101647.25
2019-06-08T21:18:48.764Z,101645.53
2019-06-08T21:21:17.961Z,101656.27
2019-06-08T21:23:51.069Z,101653.17
2019-06-08T21:26:18.385Z,101656.41
2019-06-08T21:28:51.283Z,101653.77
2019-06-08T21:31:18.314Z,101660.95
2019-06-08T21:33:49.332Z,101658.78
2019-06-08T21:36:18.311Z,101653.94
2019-06-08T21:38:50.292Z,101661.11
2019-06-08T21:41:18.092Z,101663.80
2019-06-08T21:43:51.040Z,101663.83
2019-06-08T21:46:17.980Z,101656.73
2019-06-08T21:48:48.693Z,101653.19
2019-06-08T21:51:17.814Z,101659.02
2019-06-08T21:53:48.393Z,101659.50
2019-06-08T21:56:18.220Z,101655.97
2019-06-08T21:58:49.755Z,101650.66
2019-06-08T22:01:18.808Z,101655.62
2019-06-08T22:03:47.912Z,101652.98
2019-06-08T22:06:17.697Z,101656.14
2019-06-08T22:08:48.112Z,101658.83
2019-06-08T22:11:17.758Z,101659.30
2019-06-08T22:13:47.649Z,101661.58
2019-06-08T22:16:16.970Z,101666.47
2019-06-08T22:18:47.534Z,101665.59
2019-06-08T22:21:18.129Z,101673.18
2019-06-08T22:23:47.702Z,101666.97
2019-06-08T22:26:17.802Z,101669.23
2019-06-08T22:28:48.210Z,101668.79
2019-06-08T22:31:17.719Z,101670.59
2019-06-08T22:33:48.359Z,101667.03
2019-06-08T22:36:18.838Z,101676.39
2019-06-08T22:38:48.005Z,101670.58
2019-06-08T22:41:17.452Z,101675.06
2019-06-08T22:43:48.193Z,101676.86
2019-06-08T22:46:17.909Z,101681.77
2019-06-08T22:48:47.833Z,101679.56
2019-06-08T22:51:18.741Z,101679.16
2019-06-08T22:53:47.995Z,101676.03
2019-06-08T22:56:18.327Z,101679.17
2019-06-08T22:58:48.090Z,101677.84
2019-06-08T23:01:18.450Z,101678.30
2019-06-08T23:03:47.808Z,101677.02
2019-06-08T23:06:17.656Z,101673.02
2019-06-08T23:08:48.035Z,101672.58
2019-06-08T23:11:18.049Z,101674.80
2019-06-08T23:13:47.376Z,101672.16
2019-06-08T23:16:18.200Z,101674.37
2019-06-08T23:18:47.868Z,101675.72
2019-06-08T23:21:18.047Z,101675.72
2019-06-08T23:23:47.802Z,101681.06
2019-06-08T23:26:18.319Z,101686.41
2019-06-08T23:28:47.610Z,101678.86
2019-06-08T23:31:24.911Z,101680.23
2019-06-08T23:33:48.211Z,101678.44
2019-06-08T23:38:48.299Z,101682.03
2019-06-08T23:41:17.800Z,101682.03
2019-06-08T23:43:48.042Z,101677.59
2019-06-08T23:46:18.133Z,101680.27
2019-06-08T23:48:48.416Z,101678.52
2019-06-08T23:51:18.182Z,101686.52
2019-06-08T23:53:47.769Z,101683.39
2019-06-08T23:56:18.335Z,101681.61
2019-06-08T23:58:48.254Z,101675.38
